sensor_id;sensor_type;location;lat;lon;timestamp;P1;durP1;ratioP1;P2;durP2;ratioP2
12367;SDS011;6248;49.812;6.620;2023-04-06T00:01:09;6.53;;;5.73;;
12367;SDS011;6248;49.812;6.620;2023-04-06T00:03:37;7.40;;;5.80;;
12367;SDS011;6248;49.812;6.620;2023-04-06T00:06:04;6.73;;;5.87;;
12367;SDS011;6248;49.812;6.620;2023-04-06T00:08:31;7.37;;;6.23;;
12367;SDS011;6248;49.812;6.620;2023-04-06T00:11:00;7.13;;;5.50;;
12367;SDS011;6248;49.812;6.620;2023-04-06T00:13:27;8.97;;;6.20;;
12367;SDS011;6248;49.812;6.620;2023-04-06T00:15:54;7.77;;;6.13;;
12367;SDS011;6248;49.812;6.620;2023-04-06T00:18:22;7.17;;;6.20;;
12367;SDS011;6248;49.812;6.620;2023-04-06T00:20:49;8.30;;;6.60;;
12367;SDS011;6248;49.812;6.620;2023-04-06T00:23:16;6.40;;;5.77;;
12367;SDS011;6248;49.812;6.620;2023-04-06T00:25:43;7.87;;;6.40;;
12367;SDS011;6248;49.812;6.620;2023-04-06T00:28:12;7.43;;;6.43;;
12367;SDS011;6248;49.812;6.620;2023-04-06T00:30:40;8.37;;;7.00;;
12367;SDS011;6248;49.812;6.620;2023-04-06T00:33:07;7.87;;;6.33;;
12367;SDS011;6248;49.812;6.620;2023-04-06T00:35:35;9.47;;;7.23;;
12367;SDS011;6248;49.812;6.620;2023-04-06T00:38:02;9.63;;;7.00;;
12367;SDS011;6248;49.812;6.620;2023-04-06T00:40:29;9.63;;;6.93;;
12367;SDS011;6248;49.812;6.620;2023-04-06T00:42:57;7.10;;;6.27;;
12367;SDS011;6248;49.812;6.620;2023-04-06T00:45:26;9.03;;;6.23;;
12367;SDS011;6248;49.812;6.620;2023-04-06T00:47:53;8.67;;;6.97;;
12367;SDS011;6248;49.812;6.620;2023-04-06T00:50:21;10.57;;;6.73;;
12367;SDS011;6248;49.812;6.620;2023-04-06T00:52:48;8.03;;;6.40;;
12367;SDS011;6248;49.812;6.620;2023-04-06T00:55:15;9.93;;;7.43;;
12367;SDS011;6248;49.812;6.620;2023-04-06T00:57:42;8.60;;;7.20;;
12367;SDS011;6248;49.812;6.620;2023-04-06T01:00:10;8.13;;;6.87;;
12367;SDS011;6248;49.812;6.620;2023-04-06T01:02:39;10.33;;;7.00;;
12367;SDS011;6248;49.812;6.620;2023-04-06T01:05:07;7.40;;;6.57;;
12367;SDS011;6248;49.812;6.620;2023-04-06T01:07:34;8.80;;;6.47;;
12367;SDS011;6248;49.812;6.620;2023-04-06T01:10:01;9.33;;;6.93;;
12367;SDS011;6248;49.812;6.620;2023-04-06T01:12:28;7.23;;;6.30;;
12367;SDS011;6248;49.812;6.620;2023-04-06T01:14:56;7.80;;;6.50;;
12367;SDS011;6248;49.812;6.620;2023-04-06T01:17:23;9.37;;;6.70;;
12367;SDS011;6248;49.812;6.620;2023-04-06T01:19:52;7.43;;;6.37;;
12367;SDS011;6248;49.812;6.620;2023-04-06T01:22:21;8.80;;;6.93;;
12367;SDS011;6248;49.812;6.620;2023-04-06T01:24:48;8.40;;;6.67;;
12367;SDS011;6248;49.812;6.620;2023-04-06T01:27:15;9.60;;;7.17;;
12367;SDS011;6248;49.812;6.620;2023-04-06T01:29:42;10.20;;;7.20;;
12367;SDS011;6248;49.812;6.620;2023-04-06T01:32:10;10.03;;;7.10;;
12367;SDS011;6248;49.812;6.620;2023-04-06T01:34:37;10.07;;;6.90;;
12367;SDS011;6248;49.812;6.620;2023-04-06T01:37:04;8.47;;;6.43;;
12367;SDS011;6248;49.812;6.620;2023-04-06T01:39:33;9.07;;;6.90;;
12367;SDS011;6248;49.812;6.620;2023-04-06T01:42:00;8.83;;;6.80;;
12367;SDS011;6248;49.812;6.620;2023-04-06T01:44:27;10.57;;;6.50;;
12367;SDS011;6248;49.812;6.620;2023-04-06T01:46:55;8.53;;;6.90;;
12367;SDS011;6248;49.812;6.620;2023-04-06T01:49:22;9.37;;;7.30;;
12367;SDS011;6248;49.812;6.620;2023-04-06T01:51:50;8.17;;;6.43;;
12367;SDS011;6248;49.812;6.620;2023-04-06T01:54:17;9.23;;;6.77;;
12367;SDS011;6248;49.812;6.620;2023-04-06T01:56:46;9.10;;;6.67;;
12367;SDS011;6248;49.812;6.620;2023-04-06T01:59:15;9.27;;;7.10;;
12367;SDS011;6248;49.812;6.620;2023-04-06T02:01:42;8.47;;;6.23;;
12367;SDS011;6248;49.812;6.620;2023-04-06T02:04:10;12.77;;;6.40;;
12367;SDS011;6248;49.812;6.620;2023-04-06T02:06:38;6.80;;;6.10;;
12367;SDS011;6248;49.812;6.620;2023-04-06T02:09:05;6.70;;;6.00;;
12367;SDS011;6248;49.812;6.620;2023-04-06T02:11:33;7.77;;;6.23;;
12367;SDS011;6248;49.812;6.620;2023-04-06T02:14:01;8.17;;;6.37;;
12367;SDS011;6248;49.812;6.620;2023-04-06T02:16:29;6.40;;;5.80;;
12367;SDS011;6248;49.812;6.620;2023-04-06T02:18:56;8.13;;;5.80;;
12367;SDS011;6248;49.812;6.620;2023-04-06T02:21:23;7.73;;;5.87;;
12367;SDS011;6248;49.812;6.620;2023-04-06T02:23:50;7.70;;;5.57;;
12367;SDS011;6248;49.812;6.620;2023-04-06T02:26:17;8.00;;;6.50;;
12367;SDS011;6248;49.812;6.620;2023-04-06T02:28:45;7.03;;;6.13;;
12367;SDS011;6248;49.812;6.620;2023-04-06T02:31:13;7.97;;;6.50;;
12367;SDS011;6248;49.812;6.620;2023-04-06T02:33:41;7.90;;;6.77;;
12367;SDS011;6248;49.812;6.620;2023-04-06T02:36:08;8.10;;;6.43;;
12367;SDS011;6248;49.812;6.620;2023-04-06T02:38:35;6.63;;;5.90;;
12367;SDS011;6248;49.812;6.620;2023-04-06T02:41:02;7.50;;;6.20;;
12367;SDS011;6248;49.812;6.620;2023-04-06T02:43:30;9.10;;;6.90;;
12367;SDS011;6248;49.812;6.620;2023-04-06T02:45:57;7.50;;;6.10;;
12367;SDS011;6248;49.812;6.620;2023-04-06T02:48:26;8.53;;;6.23;;
12367;SDS011;6248;49.812;6.620;2023-04-06T02:50:53;9.17;;;6.10;;
12367;SDS011;6248;49.812;6.620;2023-04-06T02:53:20;6.93;;;5.87;;
12367;SDS011;6248;49.812;6.620;2023-04-06T02:55:47;7.43;;;6.27;;
12367;SDS011;6248;49.812;6.620;2023-04-06T02:58:15;8.43;;;6.10;;
12367;SDS011;6248;49.812;6.620;2023-04-06T03:00:42;6.50;;;5.63;;
12367;SDS011;6248;49.812;6.620;2023-04-06T03:03:09;8.50;;;6.63;;
12367;SDS011;6248;49.812;6.620;2023-04-06T03:05:38;8.23;;;6.43;;
12367;SDS011;6248;49.812;6.620;2023-04-06T03:08:05;7.93;;;6.33;;
12367;SDS011;6248;49.812;6.620;2023-04-06T03:10:32;7.13;;;5.77;;
12367;SDS011;6248;49.812;6.620;2023-04-06T03:13:00;7.10;;;5.97;;
12367;SDS011;6248;49.812;6.620;2023-04-06T03:15:27;8.40;;;6.10;;
12367;SDS011;6248;49.812;6.620;2023-04-06T03:17:54;7.77;;;6.40;;
12367;SDS011;6248;49.812;6.620;2023-04-06T03:20:21;7.20;;;6.00;;
12367;SDS011;6248;49.812;6.620;2023-04-06T03:22:50;7.43;;;6.20;;
12367;SDS011;6248;49.812;6.620;2023-04-06T03:25:17;6.63;;;5.83;;
12367;SDS011;6248;49.812;6.620;2023-04-06T03:27:44;8.80;;;6.03;;
12367;SDS011;6248;49.812;6.620;2023-04-06T03:30:11;6.50;;;5.60;;
12367;SDS011;6248;49.812;6.620;2023-04-06T03:32:39;8.50;;;5.87;;
12367;SDS011;6248;49.812;6.620;2023-04-06T03:35:06;6.60;;;5.20;;
12367;SDS011;6248;49.812;6.620;2023-04-06T03:37:33;6.00;;;5.40;;
12367;SDS011;6248;49.812;6.620;2023-04-06T03:40:02;7.77;;;5.87;;
12367;SDS011;6248;49.812;6.620;2023-04-06T03:42:29;9.97;;;6.03;;
12367;SDS011;6248;49.812;6.620;2023-04-06T03:44:57;6.80;;;5.40;;
12367;SDS011;6248;49.812;6.620;2023-04-06T03:47:25;9.20;;;6.47;;
12367;SDS011;6248;49.812;6.620;2023-04-06T03:49:52;6.50;;;5.50;;
12367;SDS011;6248;49.812;6.620;2023-04-06T03:52:20;6.83;;;6.13;;
12367;SDS011;6248;49.812;6.620;2023-04-06T03:54:48;7.53;;;6.00;;
12367;SDS011;6248;49.812;6.620;2023-04-06T03:57:17;7.30;;;6.20;;
12367;SDS011;6248;49.812;6.620;2023-04-06T03:59:44;7.70;;;6.10;;
12367;SDS011;6248;49.812;6.620;2023-04-06T04:02:11;6.33;;;5.63;;
12367;SDS011;6248;49.812;6.620;2023-04-06T04:04:39;6.17;;;5.57;;
12367;SDS011;6248;49.812;6.620;2023-04-06T04:07:06;6.00;;;5.40;;
12367;SDS011;6248;49.812;6.620;2023-04-06T04:09:33;7.33;;;5.63;;
12367;SDS011;6248;49.812;6.620;2023-04-06T04:12:00;8.90;;;5.50;;
12367;SDS011;6248;49.812;6.620;2023-04-06T04:14:29;9.90;;;6.30;;
12367;SDS011;6248;49.812;6.620;2023-04-06T04:16:56;6.70;;;5.97;;
12367;SDS011;6248;49.812;6.620;2023-04-06T04:19:23;8.03;;;6.23;;
12367;SDS011;6248;49.812;6.620;2023-04-06T04:21:51;8.73;;;6.73;;
12367;SDS011;6248;49.812;6.620;2023-04-06T04:24:18;7.87;;;6.00;;
12367;SDS011;6248;49.812;6.620;2023-04-06T04:26:45;7.57;;;6.10;;
12367;SDS011;6248;49.812;6.620;2023-04-06T04:29:12;7.57;;;5.70;;
12367;SDS011;6248;49.812;6.620;2023-04-06T04:31:41;7.90;;;6.43;;
12367;SDS011;6248;49.812;6.620;2023-04-06T04:34:08;6.73;;;5.73;;
12367;SDS011;6248;49.812;6.620;2023-04-06T04:36:36;7.13;;;5.90;;
12367;SDS011;6248;49.812;6.620;2023-04-06T04:39:03;6.27;;;5.67;;
12367;SDS011;6248;49.812;6.620;2023-04-06T04:41:30;6.57;;;5.80;;
12367;SDS011;6248;49.812;6.620;2023-04-06T04:43:57;7.07;;;5.77;;
12367;SDS011;6248;49.812;6.620;2023-04-06T04:46:24;7.00;;;5.80;;
12367;SDS011;6248;49.812;6.620;2023-04-06T04:48:53;7.97;;;6.03;;
12367;SDS011;6248;49.812;6.620;2023-04-06T04:51:20;7.20;;;6.20;;
12367;SDS011;6248;49.812;6.620;2023-04-06T04:53:49;8.20;;;6.77;;
12367;SDS011;6248;49.812;6.620;2023-04-06T04:56:16;8.00;;;6.27;;
12367;SDS011;6248;49.812;6.620;2023-04-06T04:58:44;7.67;;;6.70;;
12367;SDS011;6248;49.812;6.620;2023-04-06T05:01:11;6.87;;;6.17;;
12367;SDS011;6248;49.812;6.620;2023-04-06T05:03:38;7.70;;;6.20;;
12367;SDS011;6248;49.812;6.620;2023-04-06T05:06:07;7.50;;;6.47;;
12367;SDS011;6248;49.812;6.620;2023-04-06T05:08:34;7.13;;;6.10;;
12367;SDS011;6248;49.812;6.620;2023-04-06T05:11:01;8.33;;;6.47;;
12367;SDS011;6248;49.812;6.620;2023-04-06T05:13:29;9.97;;;6.27;;
12367;SDS011;6248;49.812;6.620;2023-04-06T05:15:56;6.17;;;5.57;;
12367;SDS011;6248;49.812;6.620;2023-04-06T05:18:24;7.63;;;5.97;;
12367;SDS011;6248;49.812;6.620;2023-04-06T05:20:51;6.13;;;5.53;;
12367;SDS011;6248;49.812;6.620;2023-04-06T05:23:20;7.83;;;5.70;;
12367;SDS011;6248;49.812;6.620;2023-04-06T05:25:47;8.30;;;6.63;;
12367;SDS011;6248;49.812;6.620;2023-04-06T05:28:14;18.47;;;10.87;;
12367;SDS011;6248;49.812;6.620;2023-04-06T05:30:41;45.13;;;23.43;;
12367;SDS011;6248;49.812;6.620;2023-04-06T05:33:09;41.10;;;22.17;;
12367;SDS011;6248;49.812;6.620;2023-04-06T05:35:36;36.10;;;19.47;;
12367;SDS011;6248;49.812;6.620;2023-04-06T05:38:07;23.43;;;15.10;;
12367;SDS011;6248;49.812;6.620;2023-04-06T05:40:36;18.20;;;12.50;;
12367;SDS011;6248;49.812;6.620;2023-04-06T05:43:05;14.77;;;10.17;;
12367;SDS011;6248;49.812;6.620;2023-04-06T05:45:33;11.30;;;8.23;;
12367;SDS011;6248;49.812;6.620;2023-04-06T05:48:00;11.23;;;8.37;;
12367;SDS011;6248;49.812;6.620;2023-04-06T05:50:27;10.13;;;7.47;;
12367;SDS011;6248;49.812;6.620;2023-04-06T05:52:55;10.43;;;7.00;;
12367;SDS011;6248;49.812;6.620;2023-04-06T05:55:22;7.90;;;7.10;;
12367;SDS011;6248;49.812;6.620;2023-04-06T05:57:51;8.03;;;6.57;;
12367;SDS011;6248;49.812;6.620;2023-04-06T06:00:18;8.03;;;6.37;;
12367;SDS011;6248;49.812;6.620;2023-04-06T06:02:45;8.77;;;6.17;;
12367;SDS011;6248;49.812;6.620;2023-04-06T06:05:13;8.33;;;6.10;;
12367;SDS011;6248;49.812;6.620;2023-04-06T06:07:40;9.97;;;8.00;;
12367;SDS011;6248;49.812;6.620;2023-04-06T06:10:08;7.63;;;6.83;;
12367;SDS011;6248;49.812;6.620;2023-04-06T06:12:35;6.90;;;5.67;;
12367;SDS011;6248;49.812;6.620;2023-04-06T06:15:04;6.47;;;5.80;;
12367;SDS011;6248;49.812;6.620;2023-04-06T06:17:31;7.60;;;6.90;;
12367;SDS011;6248;49.812;6.620;2023-04-06T06:19:59;9.60;;;8.73;;
12367;SDS011;6248;49.812;6.620;2023-04-06T06:22:26;9.83;;;8.83;;
12367;SDS011;6248;49.812;6.620;2023-04-06T06:24:53;18.97;;;17.27;;
12367;SDS011;6248;49.812;6.620;2023-04-06T06:27:21;23.60;;;21.30;;
12367;SDS011;6248;49.812;6.620;2023-04-06T06:29:49;14.67;;;13.27;;
12367;SDS011;6248;49.812;6.620;2023-04-06T06:32:18;12.87;;;11.57;;
12367;SDS011;6248;49.812;6.620;2023-04-06T06:34:45;9.00;;;8.10;;
12367;SDS011;6248;49.812;6.620;2023-04-06T06:37:12;9.17;;;7.03;;
12367;SDS011;6248;49.812;6.620;2023-04-06T06:39:39;7.00;;;6.30;;
12367;SDS011;6248;49.812;6.620;2023-04-06T06:42:07;10.30;;;6.80;;
12367;SDS011;6248;49.812;6.620;2023-04-06T06:44:34;7.97;;;7.00;;
12367;SDS011;6248;49.812;6.620;2023-04-06T06:47:01;7.53;;;6.50;;
12367;SDS011;6248;49.812;6.620;2023-04-06T06:49:30;7.17;;;6.43;;
12367;SDS011;6248;49.812;6.620;2023-04-06T06:51:57;7.40;;;6.70;;
12367;SDS011;6248;49.812;6.620;2023-04-06T06:54:24;7.47;;;6.77;;
12367;SDS011;6248;49.812;6.620;2023-04-06T06:56:51;8.13;;;6.50;;
12367;SDS011;6248;49.812;6.620;2023-04-06T06:59:19;14.97;;;9.70;;
12367;SDS011;6248;49.812;6.620;2023-04-06T07:01:47;15.93;;;10.63;;
12367;SDS011;6248;49.812;6.620;2023-04-06T07:04:14;13.63;;;9.40;;
12367;SDS011;6248;49.812;6.620;2023-04-06T07:06:43;15.23;;;10.13;;
12367;SDS011;6248;49.812;6.620;2023-04-06T07:09:10;14.53;;;9.77;;
12367;SDS011;6248;49.812;6.620;2023-04-06T07:11:37;12.33;;;8.40;;
12367;SDS011;6248;49.812;6.620;2023-04-06T07:14:04;9.47;;;7.83;;
12367;SDS011;6248;49.812;6.620;2023-04-06T07:16:32;9.13;;;6.77;;
12367;SDS011;6248;49.812;6.620;2023-04-06T07:18:59;8.53;;;6.27;;
12367;SDS011;6248;49.812;6.620;2023-04-06T07:21:26;9.57;;;6.80;;
12367;SDS011;6248;49.812;6.620;2023-04-06T07:23:55;8.37;;;6.60;;
12367;SDS011;6248;49.812;6.620;2023-04-06T07:26:22;9.20;;;6.97;;
12367;SDS011;6248;49.812;6.620;2023-04-06T07:28:49;7.87;;;6.23;;
12367;SDS011;6248;49.812;6.620;2023-04-06T07:31:16;8.83;;;6.73;;
12367;SDS011;6248;49.812;6.620;2023-04-06T07:33:43;9.77;;;6.33;;
12367;SDS011;6248;49.812;6.620;2023-04-06T07:36:12;8.03;;;6.00;;
12367;SDS011;6248;49.812;6.620;2023-04-06T07:38:39;8.90;;;6.27;;
12367;SDS011;6248;49.812;6.620;2023-04-06T07:41:08;8.60;;;5.90;;
12367;SDS011;6248;49.812;6.620;2023-04-06T07:43:35;8.97;;;6.57;;
12367;SDS011;6248;49.812;6.620;2023-04-06T07:46:03;10.77;;;7.00;;
12367;SDS011;6248;49.812;6.620;2023-04-06T07:48:30;8.60;;;6.43;;
12367;SDS011;6248;49.812;6.620;2023-04-06T07:51:00;10.77;;;6.27;;
12367;SDS011;6248;49.812;6.620;2023-04-06T07:53:28;9.53;;;6.67;;
12367;SDS011;6248;49.812;6.620;2023-04-06T07:55:55;10.27;;;7.10;;
12367;SDS011;6248;49.812;6.620;2023-04-06T07:58:24;9.10;;;6.70;;
12367;SDS011;6248;49.812;6.620;2023-04-06T08:00:51;12.03;;;6.80;;
12367;SDS011;6248;49.812;6.620;2023-04-06T08:03:19;9.40;;;7.13;;
12367;SDS011;6248;49.812;6.620;2023-04-06T08:05:50;8.93;;;7.03;;
12367;SDS011;6248;49.812;6.620;2023-04-06T08:08:17;8.43;;;7.07;;
12367;SDS011;6248;49.812;6.620;2023-04-06T08:10:46;10.30;;;6.50;;
12367;SDS011;6248;49.812;6.620;2023-04-06T08:13:13;9.87;;;7.63;;
12367;SDS011;6248;49.812;6.620;2023-04-06T08:15:42;11.43;;;6.90;;
12367;SDS011;6248;49.812;6.620;2023-04-06T08:18:09;10.40;;;6.77;;
12367;SDS011;6248;49.812;6.620;2023-04-06T08:20:36;9.93;;;7.63;;
12367;SDS011;6248;49.812;6.620;2023-04-06T08:23:03;9.60;;;7.30;;
12367;SDS011;6248;49.812;6.620;2023-04-06T08:25:31;9.93;;;6.73;;
12367;SDS011;6248;49.812;6.620;2023-04-06T08:27:58;9.47;;;6.77;;
12367;SDS011;6248;49.812;6.620;2023-04-06T08:30:26;10.87;;;7.33;;
12367;SDS011;6248;49.812;6.620;2023-04-06T08:32:54;10.40;;;7.10;;
12367;SDS011;6248;49.812;6.620;2023-04-06T08:35:21;8.83;;;6.83;;
12367;SDS011;6248;49.812;6.620;2023-04-06T08:37:49;9.07;;;7.00;;
12367;SDS011;6248;49.812;6.620;2023-04-06T08:40:16;10.17;;;6.87;;
12367;SDS011;6248;49.812;6.620;2023-04-06T08:42:44;10.93;;;6.17;;
12367;SDS011;6248;49.812;6.620;2023-04-06T08:45:11;7.37;;;6.23;;
12367;SDS011;6248;49.812;6.620;2023-04-06T08:47:40;7.33;;;6.13;;
12367;SDS011;6248;49.812;6.620;2023-04-06T08:50:09;9.57;;;6.37;;
12367;SDS011;6248;49.812;6.620;2023-04-06T08:52:37;8.03;;;6.13;;
12367;SDS011;6248;49.812;6.620;2023-04-06T08:55:05;11.17;;;6.50;;
12367;SDS011;6248;49.812;6.620;2023-04-06T08:57:32;7.00;;;5.90;;
12367;SDS011;6248;49.812;6.620;2023-04-06T09:00:00;9.03;;;6.67;;
12367;SDS011;6248;49.812;6.620;2023-04-06T09:02:28;9.07;;;6.80;;
12367;SDS011;6248;49.812;6.620;2023-04-06T09:04:55;8.67;;;6.50;;
12367;SDS011;6248;49.812;6.620;2023-04-06T09:07:25;10.20;;;6.70;;
12367;SDS011;6248;49.812;6.620;2023-04-06T09:09:52;7.37;;;6.10;;
12367;SDS011;6248;49.812;6.620;2023-04-06T09:12:22;8.87;;;6.67;;
12367;SDS011;6248;49.812;6.620;2023-04-06T09:14:49;8.00;;;6.33;;
12367;SDS011;6248;49.812;6.620;2023-04-06T09:17:20;10.87;;;6.40;;
12367;SDS011;6248;49.812;6.620;2023-04-06T09:19:48;8.47;;;6.10;;
12367;SDS011;6248;49.812;6.620;2023-04-06T09:22:15;8.70;;;6.23;;
12367;SDS011;6248;49.812;6.620;2023-04-06T09:24:44;9.40;;;6.40;;
12367;SDS011;6248;49.812;6.620;2023-04-06T09:27:12;8.53;;;6.00;;
12367;SDS011;6248;49.812;6.620;2023-04-06T09:29:39;8.30;;;6.73;;
12367;SDS011;6248;49.812;6.620;2023-04-06T09:32:07;9.83;;;6.97;;
12367;SDS011;6248;49.812;6.620;2023-04-06T09:34:36;10.70;;;7.10;;
12367;SDS011;6248;49.812;6.620;2023-04-06T09:37:11;9.37;;;6.73;;
12367;SDS011;6248;49.812;6.620;2023-04-06T09:39:41;11.87;;;7.70;;
12367;SDS011;6248;49.812;6.620;2023-04-06T09:42:11;9.20;;;7.07;;
12367;SDS011;6248;49.812;6.620;2023-04-06T09:44:38;10.53;;;8.47;;
12367;SDS011;6248;49.812;6.620;2023-04-06T09:47:06;13.73;;;10.57;;
12367;SDS011;6248;49.812;6.620;2023-04-06T09:49:34;10.53;;;8.30;;
12367;SDS011;6248;49.812;6.620;2023-04-06T09:52:01;10.57;;;7.10;;
12367;SDS011;6248;49.812;6.620;2023-04-06T09:54:29;8.87;;;6.50;;
12367;SDS011;6248;49.812;6.620;2023-04-06T09:56:58;9.87;;;6.90;;
12367;SDS011;6248;49.812;6.620;2023-04-06T09:59:31;11.33;;;6.33;;
12367;SDS011;6248;49.812;6.620;2023-04-06T10:01:59;8.73;;;6.97;;
12367;SDS011;6248;49.812;6.620;2023-04-06T10:04:30;8.90;;;6.30;;
12367;SDS011;6248;49.812;6.620;2023-04-06T10:06:59;9.57;;;6.50;;
12367;SDS011;6248;49.812;6.620;2023-04-06T10:09:28;7.33;;;6.50;;
12367;SDS011;6248;49.812;6.620;2023-04-06T10:12:00;8.00;;;6.30;;
12367;SDS011;6248;49.812;6.620;2023-04-06T10:14:29;8.10;;;6.27;;
12367;SDS011;6248;49.812;6.620;2023-04-06T10:16:57;8.27;;;6.17;;
12367;SDS011;6248;49.812;6.620;2023-04-06T10:19:25;7.20;;;6.17;;
12367;SDS011;6248;49.812;6.620;2023-04-06T10:21:54;7.00;;;6.00;;
12367;SDS011;6248;49.812;6.620;2023-04-06T10:24:24;9.37;;;6.60;;
12367;SDS011;6248;49.812;6.620;2023-04-06T10:26:57;9.07;;;6.47;;
12367;SDS011;6248;49.812;6.620;2023-04-06T10:29:25;9.43;;;6.77;;
12367;SDS011;6248;49.812;6.620;2023-04-06T10:31:54;9.10;;;5.90;;
12367;SDS011;6248;49.812;6.620;2023-04-06T10:34:21;8.50;;;6.50;;
12367;SDS011;6248;49.812;6.620;2023-04-06T10:36:48;10.57;;;6.30;;
12367;SDS011;6248;49.812;6.620;2023-04-06T10:39:15;8.57;;;6.17;;
12367;SDS011;6248;49.812;6.620;2023-04-06T10:41:52;8.57;;;6.50;;
12367;SDS011;6248;49.812;6.620;2023-04-06T10:44:20;9.40;;;6.47;;
12367;SDS011;6248;49.812;6.620;2023-04-06T10:46:56;9.30;;;6.50;;
12367;SDS011;6248;49.812;6.620;2023-04-06T10:49:25;9.13;;;6.87;;
12367;SDS011;6248;49.812;6.620;2023-04-06T10:51:53;8.80;;;6.97;;
12367;SDS011;6248;49.812;6.620;2023-04-06T10:54:20;11.33;;;6.90;;
12367;SDS011;6248;49.812;6.620;2023-04-06T10:56:48;8.37;;;6.50;;
12367;SDS011;6248;49.812;6.620;2023-04-06T10:59:18;11.53;;;7.00;;
12367;SDS011;6248;49.812;6.620;2023-04-06T11:01:46;11.20;;;6.77;;
12367;SDS011;6248;49.812;6.620;2023-04-06T11:04:16;11.97;;;8.57;;
12367;SDS011;6248;49.812;6.620;2023-04-06T11:06:46;9.20;;;7.00;;
12367;SDS011;6248;49.812;6.620;2023-04-06T11:09:22;8.23;;;6.60;;
12367;SDS011;6248;49.812;6.620;2023-04-06T11:11:50;10.53;;;7.20;;
12367;SDS011;6248;49.812;6.620;2023-04-06T11:14:17;11.10;;;7.87;;
12367;SDS011;6248;49.812;6.620;2023-04-06T11:16:46;12.07;;;8.43;;
12367;SDS011;6248;49.812;6.620;2023-04-06T11:19:13;11.73;;;8.70;;
12367;SDS011;6248;49.812;6.620;2023-04-06T11:21:42;9.57;;;7.10;;
12367;SDS011;6248;49.812;6.620;2023-04-06T11:24:13;8.23;;;6.77;;
12367;SDS011;6248;49.812;6.620;2023-04-06T11:26:41;11.83;;;6.70;;
12367;SDS011;6248;49.812;6.620;2023-04-06T11:29:08;12.67;;;6.77;;
12367;SDS011;6248;49.812;6.620;2023-04-06T11:31:39;10.87;;;6.67;;
12367;SDS011;6248;49.812;6.620;2023-04-06T11:34:15;10.10;;;7.33;;
12367;SDS011;6248;49.812;6.620;2023-04-06T11:36:45;8.83;;;6.77;;
12367;SDS011;6248;49.812;6.620;2023-04-06T11:39:12;11.37;;;6.83;;
12367;SDS011;6248;49.812;6.620;2023-04-06T11:41:39;9.53;;;6.73;;
12367;SDS011;6248;49.812;6.620;2023-04-06T11:44:07;10.03;;;7.00;;
12367;SDS011;6248;49.812;6.620;2023-04-06T11:46:34;11.97;;;6.97;;
12367;SDS011;6248;49.812;6.620;2023-04-06T11:49:01;9.63;;;6.77;;
12367;SDS011;6248;49.812;6.620;2023-04-06T11:51:29;7.87;;;6.67;;
12367;SDS011;6248;49.812;6.620;2023-04-06T11:53:57;7.13;;;6.23;;
12367;SDS011;6248;49.812;6.620;2023-04-06T11:56:26;11.23;;;7.13;;
12367;SDS011;6248;49.812;6.620;2023-04-06T11:58:54;9.67;;;6.73;;
12367;SDS011;6248;49.812;6.620;2023-04-06T12:01:21;12.97;;;6.97;;
12367;SDS011;6248;49.812;6.620;2023-04-06T12:03:49;7.50;;;6.17;;
12367;SDS011;6248;49.812;6.620;2023-04-06T12:06:16;7.73;;;6.17;;
12367;SDS011;6248;49.812;6.620;2023-04-06T12:08:43;10.87;;;6.70;;
12367;SDS011;6248;49.812;6.620;2023-04-06T12:11:12;8.33;;;6.80;;
12367;SDS011;6248;49.812;6.620;2023-04-06T12:13:39;7.93;;;6.90;;
12367;SDS011;6248;49.812;6.620;2023-04-06T12:16:06;8.47;;;6.60;;
12367;SDS011;6248;49.812;6.620;2023-04-06T12:18:34;9.70;;;6.70;;
12367;SDS011;6248;49.812;6.620;2023-04-06T12:21:01;9.87;;;6.60;;
12367;SDS011;6248;49.812;6.620;2023-04-06T12:23:28;7.43;;;6.23;;
12367;SDS011;6248;49.812;6.620;2023-04-06T12:25:55;6.50;;;5.73;;
12367;SDS011;6248;49.812;6.620;2023-04-06T12:28:24;6.87;;;5.63;;
12367;SDS011;6248;49.812;6.620;2023-04-06T12:30:52;7.57;;;5.43;;
12367;SDS011;6248;49.812;6.620;2023-04-06T12:33:20;7.50;;;5.67;;
12367;SDS011;6248;49.812;6.620;2023-04-06T12:35:47;7.37;;;6.00;;
12367;SDS011;6248;49.812;6.620;2023-04-06T12:38:14;7.83;;;6.23;;
12367;SDS011;6248;49.812;6.620;2023-04-06T12:40:42;8.93;;;6.30;;
12367;SDS011;6248;49.812;6.620;2023-04-06T12:43:09;7.63;;;5.00;;
12367;SDS011;6248;49.812;6.620;2023-04-06T12:45:39;7.60;;;5.20;;
12367;SDS011;6248;49.812;6.620;2023-04-06T12:48:07;8.70;;;5.43;;
12367;SDS011;6248;49.812;6.620;2023-04-06T12:50:34;7.10;;;5.70;;
12367;SDS011;6248;49.812;6.620;2023-04-06T12:53:01;5.77;;;5.23;;
12367;SDS011;6248;49.812;6.620;2023-04-06T12:55:29;7.63;;;6.80;;
12367;SDS011;6248;49.812;6.620;2023-04-06T12:57:59;7.33;;;5.93;;
12367;SDS011;6248;49.812;6.620;2023-04-06T13:00:26;8.30;;;6.73;;
12367;SDS011;6248;49.812;6.620;2023-04-06T13:02:55;7.00;;;6.30;;
12367;SDS011;6248;49.812;6.620;2023-04-06T13:05:22;7.63;;;6.63;;
12367;SDS011;6248;49.812;6.620;2023-04-06T13:07:49;8.10;;;6.63;;
12367;SDS011;6248;49.812;6.620;2023-04-06T13:10:16;9.37;;;7.20;;
12367;SDS011;6248;49.812;6.620;2023-04-06T13:12:44;8.57;;;7.07;;
12367;SDS011;6248;49.812;6.620;2023-04-06T13:15:11;8.20;;;7.00;;
12367;SDS011;6248;49.812;6.620;2023-04-06T13:17:38;8.63;;;7.03;;
12367;SDS011;6248;49.812;6.620;2023-04-06T13:20:07;7.63;;;6.83;;
12367;SDS011;6248;49.812;6.620;2023-04-06T13:22:35;7.43;;;6.23;;
12367;SDS011;6248;49.812;6.620;2023-04-06T13:25:02;7.00;;;6.00;;
12367;SDS011;6248;49.812;6.620;2023-04-06T13:27:30;6.80;;;5.83;;
12367;SDS011;6248;49.812;6.620;2023-04-06T13:29:58;6.33;;;5.20;;
12367;SDS011;6248;49.812;6.620;2023-04-06T13:32:26;6.10;;;5.50;;
12367;SDS011;6248;49.812;6.620;2023-04-06T13:34:54;4.97;;;4.57;;
12367;SDS011;6248;49.812;6.620;2023-04-06T13:37:22;4.83;;;4.40;;
12367;SDS011;6248;49.812;6.620;2023-04-06T13:39:50;4.70;;;4.30;;
12367;SDS011;6248;49.812;6.620;2023-04-06T13:42:17;5.50;;;5.00;;
12367;SDS011;6248;49.812;6.620;2023-04-06T13:44:44;5.17;;;4.53;;
12367;SDS011;6248;49.812;6.620;2023-04-06T13:47:12;4.57;;;4.07;;
12367;SDS011;6248;49.812;6.620;2023-04-06T13:49:40;4.90;;;4.20;;
12367;SDS011;6248;49.812;6.620;2023-04-06T13:52:07;5.03;;;4.60;;
12367;SDS011;6248;49.812;6.620;2023-04-06T13:54:37;8.97;;;7.03;;
12367;SDS011;6248;49.812;6.620;2023-04-06T13:57:04;8.07;;;7.17;;
12367;SDS011;6248;49.812;6.620;2023-04-06T13:59:32;8.63;;;7.27;;
12367;SDS011;6248;49.812;6.620;2023-04-06T14:02:00;5.80;;;5.20;;
12367;SDS011;6248;49.812;6.620;2023-04-06T14:04:27;5.10;;;4.60;;
12367;SDS011;6248;49.812;6.620;2023-04-06T14:06:54;4.50;;;4.10;;
12367;SDS011;6248;49.812;6.620;2023-04-06T14:09:21;5.27;;;4.67;;
12367;SDS011;6248;49.812;6.620;2023-04-06T14:11:50;5.30;;;4.77;;
12367;SDS011;6248;49.812;6.620;2023-04-06T14:14:17;4.50;;;4.10;;
12367;SDS011;6248;49.812;6.620;2023-04-06T14:16:44;4.70;;;4.30;;
12367;SDS011;6248;49.812;6.620;2023-04-06T14:19:12;5.00;;;4.50;;
12367;SDS011;6248;49.812;6.620;2023-04-06T14:21:40;4.37;;;3.97;;
12367;SDS011;6248;49.812;6.620;2023-04-06T14:24:08;4.80;;;4.00;;
12367;SDS011;6248;49.812;6.620;2023-04-06T14:26:36;5.07;;;4.10;;
12367;SDS011;6248;49.812;6.620;2023-04-06T14:29:04;5.70;;;4.37;;
12367;SDS011;6248;49.812;6.620;2023-04-06T14:31:32;4.23;;;3.80;;
12367;SDS011;6248;49.812;6.620;2023-04-06T14:34:00;4.93;;;4.43;;
12367;SDS011;6248;49.812;6.620;2023-04-06T14:36:27;4.33;;;3.93;;
12367;SDS011;6248;49.812;6.620;2023-04-06T14:39:01;4.07;;;3.67;;
12367;SDS011;6248;49.812;6.620;2023-04-06T14:41:29;3.77;;;3.47;;
12367;SDS011;6248;49.812;6.620;2023-04-06T14:43:56;3.67;;;3.37;;
12367;SDS011;6248;49.812;6.620;2023-04-06T14:46:25;4.30;;;3.33;;
12367;SDS011;6248;49.812;6.620;2023-04-06T14:48:53;4.10;;;3.70;;
12367;SDS011;6248;49.812;6.620;2023-04-06T14:51:21;4.00;;;3.20;;
12367;SDS011;6248;49.812;6.620;2023-04-06T14:53:48;3.50;;;3.20;;
12367;SDS011;6248;49.812;6.620;2023-04-06T14:56:18;4.50;;;3.67;;
12367;SDS011;6248;49.812;6.620;2023-04-06T14:58:46;3.90;;;3.50;;
12367;SDS011;6248;49.812;6.620;2023-04-06T15:01:13;3.60;;;3.30;;